sensor_id;sensor_type;location;lat;lon;timestamp;P1;durP1;ratioP1;P2;durP2;ratioP2
4672;SDS011;61885;53.560;9.940;2022-10-16T00:00:01;7.27;;;3.90;;
4672;SDS011;61885;53.560;9.940;2022-10-16T00:02:31;5.70;;;3.97;;
4672;SDS011;61885;53.560;9.940;2022-10-16T00:05:01;6.23;;;3.23;;
4672;SDS011;61885;53.560;9.940;2022-10-16T00:07:30;8.10;;;4.10;;
4672;SDS011;61885;53.560;9.940;2022-10-16T00:10:03;9.13;;;4.27;;
4672;SDS011;61885;53.560;9.940;2022-10-16T00:12:33;10.50;;;3.50;;
4672;SDS011;61885;53.560;9.940;2022-10-16T00:15:02;9.13;;;3.60;;
4672;SDS011;61885;53.560;9.940;2022-10-16T00:17:33;3.90;;;3.10;;
4672;SDS011;61885;53.560;9.940;2022-10-16T00:20:03;2.83;;;2.57;;
4672;SDS011;61885;53.560;9.940;2022-10-16T00:22:33;5.07;;;2.47;;
4672;SDS011;61885;53.560;9.940;2022-10-16T00:25:06;4.40;;;2.30;;
4672;SDS011;61885;53.560;9.940;2022-10-16T00:27:36;3.80;;;2.40;;
4672;SDS011;61885;53.560;9.940;2022-10-16T00:30:06;2.27;;;1.90;;
4672;SDS011;61885;53.560;9.940;2022-10-16T00:32:37;4.03;;;2.40;;
4672;SDS011;61885;53.560;9.940;2022-10-16T00:35:07;4.97;;;2.23;;
4672;SDS011;61885;53.560;9.940;2022-10-16T00:37:36;2.73;;;1.90;;
4672;SDS011;61885;53.560;9.940;2022-10-16T00:40:09;3.60;;;1.83;;
4672;SDS011;61885;53.560;9.940;2022-10-16T00:42:39;2.20;;;2.00;;
4672;SDS011;61885;53.560;9.940;2022-10-16T00:45:09;2.60;;;1.73;;
4672;SDS011;61885;53.560;9.940;2022-10-16T00:47:40;1.80;;;1.70;;
4672;SDS011;61885;53.560;9.940;2022-10-16T00:50:16;2.53;;;2.33;;
4672;SDS011;61885;53.560;9.940;2022-10-16T00:52:52;2.53;;;1.80;;
4672;SDS011;61885;53.560;9.940;2022-10-16T00:55:25;2.27;;;1.60;;
4672;SDS011;61885;53.560;9.940;2022-10-16T00:57:56;2.23;;;1.90;;
4672;SDS011;61885;53.560;9.940;2022-10-16T01:00:26;1.83;;;1.63;;
4672;SDS011;61885;53.560;9.940;2022-10-16T01:02:57;8.00;;;2.10;;
4672;SDS011;61885;53.560;9.940;2022-10-16T01:05:30;1.90;;;1.60;;
4672;SDS011;61885;53.560;9.940;2022-10-16T01:08:12;4.23;;;1.80;;
4672;SDS011;61885;53.560;9.940;2022-10-16T01:10:48;1.70;;;1.60;;
4672;SDS011;61885;53.560;9.940;2022-10-16T01:13:24;2.00;;;1.53;;
4672;SDS011;61885;53.560;9.940;2022-10-16T01:15:59;3.90;;;1.40;;
4672;SDS011;61885;53.560;9.940;2022-10-16T01:18:35;2.40;;;1.53;;
4672;SDS011;61885;53.560;9.940;2022-10-16T01:21:10;1.63;;;1.53;;
4672;SDS011;61885;53.560;9.940;2022-10-16T01:23:48;1.97;;;1.70;;
4672;SDS011;61885;53.560;9.940;2022-10-16T01:26:35;1.83;;;1.57;;
4672;SDS011;61885;53.560;9.940;2022-10-16T01:29:16;1.80;;;1.70;;
4672;SDS011;61885;53.560;9.940;2022-10-16T01:31:50;1.37;;;1.27;;
4672;SDS011;61885;53.560;9.940;2022-10-16T01:34:28;2.33;;;1.40;;
4672;SDS011;61885;53.560;9.940;2022-10-16T01:37:04;1.33;;;1.23;;
4672;SDS011;61885;53.560;9.940;2022-10-16T01:39:37;3.10;;;1.37;;
4672;SDS011;61885;53.560;9.940;2022-10-16T01:42:18;3.63;;;1.67;;
4672;SDS011;61885;53.560;9.940;2022-10-16T01:44:53;1.50;;;1.40;;
4672;SDS011;61885;53.560;9.940;2022-10-16T01:47:25;1.80;;;1.57;;
4672;SDS011;61885;53.560;9.940;2022-10-16T01:49:56;1.67;;;1.13;;
4672;SDS011;61885;53.560;9.940;2022-10-16T01:52:28;4.23;;;1.60;;
4672;SDS011;61885;53.560;9.940;2022-10-16T01:54:58;3.50;;;2.23;;
4672;SDS011;61885;53.560;9.940;2022-10-16T01:57:31;1.93;;;1.47;;
4672;SDS011;61885;53.560;9.940;2022-10-16T02:00:07;1.70;;;1.60;;
4672;SDS011;61885;53.560;9.940;2022-10-16T02:02:40;4.87;;;1.63;;
4672;SDS011;61885;53.560;9.940;2022-10-16T02:05:12;1.33;;;1.20;;
4672;SDS011;61885;53.560;9.940;2022-10-16T02:07:46;1.90;;;1.77;;
4672;SDS011;61885;53.560;9.940;2022-10-16T02:10:16;2.40;;;1.33;;
4672;SDS011;61885;53.560;9.940;2022-10-16T02:12:48;4.33;;;1.80;;
4672;SDS011;61885;53.560;9.940;2022-10-16T02:15:25;2.20;;;1.40;;
4672;SDS011;61885;53.560;9.940;2022-10-16T02:17:55;1.70;;;1.50;;
4672;SDS011;61885;53.560;9.940;2022-10-16T02:20:25;2.00;;;1.80;;
4672;SDS011;61885;53.560;9.940;2022-10-16T02:22:56;3.30;;;2.17;;
4672;SDS011;61885;53.560;9.940;2022-10-16T02:25:28;3.67;;;1.23;;
4672;SDS011;61885;53.560;9.940;2022-10-16T02:28:01;3.20;;;1.20;;
4672;SDS011;61885;53.560;9.940;2022-10-16T02:30:39;1.93;;;1.40;;
4672;SDS011;61885;53.560;9.940;2022-10-16T02:33:12;2.80;;;1.27;;
4672;SDS011;61885;53.560;9.940;2022-10-16T02:35:44;1.00;;;0.87;;
4672;SDS011;61885;53.560;9.940;2022-10-16T02:38:16;1.40;;;1.23;;
4672;SDS011;61885;53.560;9.940;2022-10-16T02:40:47;1.40;;;1.30;;
4672;SDS011;61885;53.560;9.940;2022-10-16T02:43:17;1.70;;;1.27;;
4672;SDS011;61885;53.560;9.940;2022-10-16T02:45:49;7.83;;;1.20;;
4672;SDS011;61885;53.560;9.940;2022-10-16T02:48:19;1.20;;;1.10;;
4672;SDS011;61885;53.560;9.940;2022-10-16T02:50:49;1.60;;;1.10;;
4672;SDS011;61885;53.560;9.940;2022-10-16T02:53:18;1.30;;;1.20;;
4672;SDS011;61885;53.560;9.940;2022-10-16T02:55:48;1.80;;;1.33;;
4672;SDS011;61885;53.560;9.940;2022-10-16T02:58:17;2.00;;;1.80;;
4672;SDS011;61885;53.560;9.940;2022-10-16T03:00:50;2.03;;;1.40;;
4672;SDS011;61885;53.560;9.940;2022-10-16T03:03:19;2.43;;;1.50;;
4672;SDS011;61885;53.560;9.940;2022-10-16T03:05:50;6.20;;;1.77;;
4672;SDS011;61885;53.560;9.940;2022-10-16T03:08:19;2.50;;;1.17;;
4672;SDS011;61885;53.560;9.940;2022-10-16T03:10:51;3.77;;;1.60;;
4672;SDS011;61885;53.560;9.940;2022-10-16T03:13:21;3.53;;;1.67;;
4672;SDS011;61885;53.560;9.940;2022-10-16T03:15:53;6.53;;;1.83;;
4672;SDS011;61885;53.560;9.940;2022-10-16T03:18:22;1.83;;;1.73;;
4672;SDS011;61885;53.560;9.940;2022-10-16T03:20:52;2.50;;;1.40;;
4672;SDS011;61885;53.560;9.940;2022-10-16T03:23:21;1.63;;;1.53;;
4672;SDS011;61885;53.560;9.940;2022-10-16T03:25:51;2.23;;;2.03;;
4672;SDS011;61885;53.560;9.940;2022-10-16T03:28:20;1.83;;;1.47;;
4672;SDS011;61885;53.560;9.940;2022-10-16T03:30:53;2.53;;;1.70;;
4672;SDS011;61885;53.560;9.940;2022-10-16T03:33:22;1.90;;;1.70;;
4672;SDS011;61885;53.560;9.940;2022-10-16T03:35:52;7.60;;;1.73;;
4672;SDS011;61885;53.560;9.940;2022-10-16T03:38:22;3.20;;;1.40;;
4672;SDS011;61885;53.560;9.940;2022-10-16T03:40:51;1.87;;;1.47;;
4672;SDS011;61885;53.560;9.940;2022-10-16T03:43:21;5.03;;;1.80;;
4672;SDS011;61885;53.560;9.940;2022-10-16T03:45:53;2.33;;;1.70;;
4672;SDS011;61885;53.560;9.940;2022-10-16T03:48:22;1.67;;;1.57;;
4672;SDS011;61885;53.560;9.940;2022-10-16T03:50:52;3.33;;;1.60;;
4672;SDS011;61885;53.560;9.940;2022-10-16T03:53:22;2.50;;;1.63;;
4672;SDS011;61885;53.560;9.940;2022-10-16T03:55:51;3.17;;;1.17;;
4672;SDS011;61885;53.560;9.940;2022-10-16T03:58:21;1.97;;;1.40;;
4672;SDS011;61885;53.560;9.940;2022-10-16T04:00:54;2.50;;;1.33;;
4672;SDS011;61885;53.560;9.940;2022-10-16T04:03:23;3.50;;;1.50;;
4672;SDS011;61885;53.560;9.940;2022-10-16T04:05:53;2.30;;;1.47;;
4672;SDS011;61885;53.560;9.940;2022-10-16T04:08:22;2.90;;;1.83;;
4672;SDS011;61885;53.560;9.940;2022-10-16T04:10:52;1.47;;;1.37;;
4672;SDS011;61885;53.560;9.940;2022-10-16T04:13:22;2.13;;;1.70;;
4672;SDS011;61885;53.560;9.940;2022-10-16T04:15:54;3.37;;;1.63;;
4672;SDS011;61885;53.560;9.940;2022-10-16T04:18:23;1.30;;;1.20;;
4672;SDS011;61885;53.560;9.940;2022-10-16T04:20:53;3.47;;;1.83;;
4672;SDS011;61885;53.560;9.940;2022-10-16T04:23:23;3.70;;;1.40;;
4672;SDS011;61885;53.560;9.940;2022-10-16T04:25:53;6.00;;;1.87;;
4672;SDS011;61885;53.560;9.940;2022-10-16T04:28:22;8.40;;;1.63;;
4672;SDS011;61885;53.560;9.940;2022-10-16T04:30:55;2.53;;;1.87;;
4672;SDS011;61885;53.560;9.940;2022-10-16T04:33:24;3.03;;;1.70;;
4672;SDS011;61885;53.560;9.940;2022-10-16T04:35:57;3.57;;;2.27;;
4672;SDS011;61885;53.560;9.940;2022-10-16T04:38:27;1.73;;;1.63;;
4672;SDS011;61885;53.560;9.940;2022-10-16T04:40:57;1.80;;;1.70;;
4672;SDS011;61885;53.560;9.940;2022-10-16T04:43:26;2.40;;;2.13;;
4672;SDS011;61885;53.560;9.940;2022-10-16T04:45:59;7.63;;;2.20;;
4672;SDS011;61885;53.560;9.940;2022-10-16T04:48:30;2.07;;;1.87;;
4672;SDS011;61885;53.560;9.940;2022-10-16T04:51:00;2.30;;;2.10;;
4672;SDS011;61885;53.560;9.940;2022-10-16T04:53:29;2.50;;;2.07;;
4672;SDS011;61885;53.560;9.940;2022-10-16T04:55:59;2.23;;;1.90;;
4672;SDS011;61885;53.560;9.940;2022-10-16T04:58:28;4.80;;;2.00;;
4672;SDS011;61885;53.560;9.940;2022-10-16T05:01:01;2.73;;;2.10;;
4672;SDS011;61885;53.560;9.940;2022-10-16T05:03:31;2.70;;;1.93;;
4672;SDS011;61885;53.560;9.940;2022-10-16T05:06:00;2.40;;;2.20;;
4672;SDS011;61885;53.560;9.940;2022-10-16T05:08:30;2.50;;;2.30;;
4672;SDS011;61885;53.560;9.940;2022-10-16T05:10:59;4.00;;;2.70;;
4672;SDS011;61885;53.560;9.940;2022-10-16T05:13:29;3.70;;;2.43;;
4672;SDS011;61885;53.560;9.940;2022-10-16T05:16:01;2.43;;;2.23;;
4672;SDS011;61885;53.560;9.940;2022-10-16T05:18:31;3.30;;;2.53;;
4672;SDS011;61885;53.560;9.940;2022-10-16T05:21:00;9.90;;;2.83;;
4672;SDS011;61885;53.560;9.940;2022-10-16T05:23:30;5.53;;;2.30;;
4672;SDS011;61885;53.560;9.940;2022-10-16T05:26:00;6.67;;;3.30;;
4672;SDS011;61885;53.560;9.940;2022-10-16T05:28:30;7.20;;;2.83;;
4672;SDS011;61885;53.560;9.940;2022-10-16T05:31:06;4.53;;;2.20;;
4672;SDS011;61885;53.560;9.940;2022-10-16T05:33:36;3.70;;;2.13;;
4672;SDS011;61885;53.560;9.940;2022-10-16T05:36:06;5.73;;;2.20;;
4672;SDS011;61885;53.560;9.940;2022-10-16T05:38:37;2.40;;;2.30;;
4672;SDS011;61885;53.560;9.940;2022-10-16T05:41:06;10.83;;;2.80;;
4672;SDS011;61885;53.560;9.940;2022-10-16T05:43:36;6.70;;;2.60;;
4672;SDS011;61885;53.560;9.940;2022-10-16T05:46:08;4.37;;;2.30;;
4672;SDS011;61885;53.560;9.940;2022-10-16T05:48:38;2.37;;;1.87;;
4672;SDS011;61885;53.560;9.940;2022-10-16T05:51:09;6.47;;;2.00;;
4672;SDS011;61885;53.560;9.940;2022-10-16T05:53:40;3.00;;;1.93;;
4672;SDS011;61885;53.560;9.940;2022-10-16T05:56:11;1.80;;;1.70;;
4672;SDS011;61885;53.560;9.940;2022-10-16T05:58:41;4.80;;;2.00;;
4672;SDS011;61885;53.560;9.940;2022-10-16T06:01:14;3.80;;;2.57;;
4672;SDS011;61885;53.560;9.940;2022-10-16T06:03:45;2.13;;;1.93;;
4672;SDS011;61885;53.560;9.940;2022-10-16T06:06:16;5.00;;;2.03;;
4672;SDS011;61885;53.560;9.940;2022-10-16T06:08:47;1.73;;;1.63;;
4672;SDS011;61885;53.560;9.940;2022-10-16T06:11:18;2.70;;;1.60;;
4672;SDS011;61885;53.560;9.940;2022-10-16T06:13:49;2.37;;;2.10;;
4672;SDS011;61885;53.560;9.940;2022-10-16T06:16:21;2.07;;;1.60;;
4672;SDS011;61885;53.560;9.940;2022-10-16T06:18:52;4.60;;;2.00;;
4672;SDS011;61885;53.560;9.940;2022-10-16T06:21:24;3.80;;;2.00;;
4672;SDS011;61885;53.560;9.940;2022-10-16T06:23:55;6.93;;;1.50;;
4672;SDS011;61885;53.560;9.940;2022-10-16T06:26:26;2.17;;;1.90;;
4672;SDS011;61885;53.560;9.940;2022-10-16T06:28:57;4.50;;;1.80;;
4672;SDS011;61885;53.560;9.940;2022-10-16T06:31:30;1.47;;;1.37;;
4672;SDS011;61885;53.560;9.940;2022-10-16T06:34:00;4.03;;;2.03;;
4672;SDS011;61885;53.560;9.940;2022-10-16T06:36:31;1.60;;;1.50;;
4672;SDS011;61885;53.560;9.940;2022-10-16T06:39:01;3.30;;;1.73;;
4672;SDS011;61885;53.560;9.940;2022-10-16T06:41:33;2.50;;;1.80;;
4672;SDS011;61885;53.560;9.940;2022-10-16T06:44:04;2.07;;;1.67;;
4672;SDS011;61885;53.560;9.940;2022-10-16T06:46:37;1.50;;;1.40;;
4672;SDS011;61885;53.560;9.940;2022-10-16T06:49:07;3.00;;;1.60;;
4672;SDS011;61885;53.560;9.940;2022-10-16T06:51:36;2.03;;;1.90;;
4672;SDS011;61885;53.560;9.940;2022-10-16T06:54:07;4.13;;;1.90;;
4672;SDS011;61885;53.560;9.940;2022-10-16T06:56:36;2.30;;;2.20;;
4672;SDS011;61885;53.560;9.940;2022-10-16T06:59:06;2.23;;;1.97;;
4672;SDS011;61885;53.560;9.940;2022-10-16T07:01:38;2.20;;;2.00;;
4672;SDS011;61885;53.560;9.940;2022-10-16T07:04:07;9.23;;;2.13;;
4672;SDS011;61885;53.560;9.940;2022-10-16T07:06:37;11.17;;;2.30;;
4672;SDS011;61885;53.560;9.940;2022-10-16T07:09:09;7.27;;;2.67;;
4672;SDS011;61885;53.560;9.940;2022-10-16T07:11:39;2.90;;;2.10;;
4672;SDS011;61885;53.560;9.940;2022-10-16T07:14:12;2.67;;;2.00;;
4672;SDS011;61885;53.560;9.940;2022-10-16T07:16:47;6.50;;;2.40;;
4672;SDS011;61885;53.560;9.940;2022-10-16T07:19:17;3.70;;;2.57;;
4672;SDS011;61885;53.560;9.940;2022-10-16T07:21:47;2.40;;;2.20;;
4672;SDS011;61885;53.560;9.940;2022-10-16T07:24:16;2.67;;;2.47;;
4672;SDS011;61885;53.560;9.940;2022-10-16T07:26:46;8.53;;;2.30;;
4672;SDS011;61885;53.560;9.940;2022-10-16T07:29:25;6.60;;;2.33;;
4672;SDS011;61885;53.560;9.940;2022-10-16T07:31:58;2.30;;;2.10;;
4672;SDS011;61885;53.560;9.940;2022-10-16T07:34:27;2.33;;;1.93;;
4672;SDS011;61885;53.560;9.940;2022-10-16T07:36:57;2.70;;;1.93;;
4672;SDS011;61885;53.560;9.940;2022-10-16T07:39:26;4.37;;;2.43;;
4672;SDS011;61885;53.560;9.940;2022-10-16T07:41:56;2.63;;;2.43;;
4672;SDS011;61885;53.560;9.940;2022-10-16T07:44:25;2.30;;;2.10;;
4672;SDS011;61885;53.560;9.940;2022-10-16T07:46:57;2.40;;;1.90;;
4672;SDS011;61885;53.560;9.940;2022-10-16T07:49:27;5.23;;;2.57;;
4672;SDS011;61885;53.560;9.940;2022-10-16T07:51:57;3.10;;;1.73;;
4672;SDS011;61885;53.560;9.940;2022-10-16T07:54:26;2.57;;;2.00;;
4672;SDS011;61885;53.560;9.940;2022-10-16T07:56:56;1.93;;;1.77;;
4672;SDS011;61885;53.560;9.940;2022-10-16T07:59:25;3.23;;;2.27;;
4672;SDS011;61885;53.560;9.940;2022-10-16T08:01:58;9.30;;;2.00;;
4672;SDS011;61885;53.560;9.940;2022-10-16T08:04:27;6.20;;;2.30;;
4672;SDS011;61885;53.560;9.940;2022-10-16T08:06:57;2.73;;;2.53;;
4672;SDS011;61885;53.560;9.940;2022-10-16T08:09:26;7.33;;;2.27;;
4672;SDS011;61885;53.560;9.940;2022-10-16T08:11:56;2.40;;;2.03;;
4672;SDS011;61885;53.560;9.940;2022-10-16T08:14:25;2.07;;;1.93;;
4672;SDS011;61885;53.560;9.940;2022-10-16T08:16:57;2.47;;;2.27;;
4672;SDS011;61885;53.560;9.940;2022-10-16T08:19:28;2.40;;;1.80;;
4672;SDS011;61885;53.560;9.940;2022-10-16T08:22:00;3.40;;;2.00;;
4672;SDS011;61885;53.560;9.940;2022-10-16T08:24:29;2.27;;;1.60;;
4672;SDS011;61885;53.560;9.940;2022-10-16T08:27:00;3.83;;;2.63;;
4672;SDS011;61885;53.560;9.940;2022-10-16T08:29:30;7.03;;;3.00;;
4672;SDS011;61885;53.560;9.940;2022-10-16T08:32:03;2.73;;;2.27;;
4672;SDS011;61885;53.560;9.940;2022-10-16T08:34:33;2.67;;;2.00;;
4672;SDS011;61885;53.560;9.940;2022-10-16T08:37:02;1.80;;;1.47;;
4672;SDS011;61885;53.560;9.940;2022-10-16T08:39:33;2.00;;;1.80;;
4672;SDS011;61885;53.560;9.940;2022-10-16T08:47:53;2.43;;;2.00;;
4672;SDS011;61885;53.560;9.940;2022-10-16T08:50:36;3.10;;;1.83;;
4672;SDS011;61885;53.560;9.940;2022-10-16T08:53:09;2.37;;;1.93;;
4672;SDS011;61885;53.560;9.940;2022-10-16T08:55:45;2.37;;;2.13;;
4672;SDS011;61885;53.560;9.940;2022-10-16T08:58:18;1.97;;;1.60;;
4672;SDS011;61885;53.560;9.940;2022-10-16T09:00:51;3.40;;;1.80;;
4672;SDS011;61885;53.560;9.940;2022-10-16T09:03:29;4.70;;;1.87;;
4672;SDS011;61885;53.560;9.940;2022-10-16T09:06:21;2.20;;;1.63;;
4672;SDS011;61885;53.560;9.940;2022-10-16T09:09:03;2.13;;;1.93;;
4672;SDS011;61885;53.560;9.940;2022-10-16T09:11:45;1.77;;;1.60;;
4672;SDS011;61885;53.560;9.940;2022-10-16T09:14:26;1.93;;;1.40;;
4672;SDS011;61885;53.560;9.940;2022-10-16T09:17:24;2.03;;;1.83;;
4672;SDS011;61885;53.560;9.940;2022-10-16T09:20:09;2.60;;;1.53;;
4672;SDS011;61885;53.560;9.940;2022-10-16T09:22:48;2.03;;;1.63;;
4672;SDS011;61885;53.560;9.940;2022-10-16T09:25:20;5.97;;;2.03;;
4672;SDS011;61885;53.560;9.940;2022-10-16T09:27:52;2.87;;;1.50;;
4672;SDS011;61885;53.560;9.940;2022-10-16T09:30:22;1.77;;;1.13;;
4672;SDS011;61885;53.560;9.940;2022-10-16T09:32:55;3.33;;;1.40;;
4672;SDS011;61885;53.560;9.940;2022-10-16T09:35:31;1.67;;;1.07;;
4672;SDS011;61885;53.560;9.940;2022-10-16T09:38:02;1.33;;;0.80;;
4672;SDS011;61885;53.560;9.940;2022-10-16T09:40:33;1.40;;;0.80;;
4672;SDS011;61885;53.560;9.940;2022-10-16T09:43:14;1.07;;;0.97;;
4672;SDS011;61885;53.560;9.940;2022-10-16T09:45:59;2.37;;;1.10;;
4672;SDS011;61885;53.560;9.940;2022-10-16T09:48:31;3.03;;;1.50;;
4672;SDS011;61885;53.560;9.940;2022-10-16T09:51:14;3.23;;;1.23;;
4672;SDS011;61885;53.560;9.940;2022-10-16T09:53:47;2.07;;;1.30;;
4672;SDS011;61885;53.560;9.940;2022-10-16T09:56:21;8.10;;;1.10;;
4672;SDS011;61885;53.560;9.940;2022-10-16T09:58:52;1.87;;;0.97;;
4672;SDS011;61885;53.560;9.940;2022-10-16T10:01:24;4.57;;;1.20;;
4672;SDS011;61885;53.560;9.940;2022-10-16T10:03:58;1.40;;;1.30;;
4672;SDS011;61885;53.560;9.940;2022-10-16T10:06:33;4.30;;;1.20;;
4672;SDS011;61885;53.560;9.940;2022-10-16T10:09:05;1.60;;;1.10;;
4672;SDS011;61885;53.560;9.940;2022-10-16T10:11:45;3.77;;;1.33;;
4672;SDS011;61885;53.560;9.940;2022-10-16T10:14:18;1.80;;;0.97;;
4672;SDS011;61885;53.560;9.940;2022-10-16T10:17:02;1.77;;;1.17;;
4672;SDS011;61885;53.560;9.940;2022-10-16T10:19:47;6.63;;;1.60;;
4672;SDS011;61885;53.560;9.940;2022-10-16T10:22:29;1.40;;;1.30;;
4672;SDS011;61885;53.560;9.940;2022-10-16T10:25:10;2.70;;;1.20;;
4672;SDS011;61885;53.560;9.940;2022-10-16T10:28:01;1.57;;;0.90;;
4672;SDS011;61885;53.560;9.940;2022-10-16T10:30:48;3.30;;;1.00;;
4672;SDS011;61885;53.560;9.940;2022-10-16T10:33:25;2.60;;;0.90;;
4672;SDS011;61885;53.560;9.940;2022-10-16T10:36:03;2.00;;;0.90;;
4672;SDS011;61885;53.560;9.940;2022-10-16T10:38:46;1.53;;;0.90;;
4672;SDS011;61885;53.560;9.940;2022-10-16T10:47:35;2.17;;;1.30;;
4672;SDS011;61885;53.560;9.940;2022-10-16T10:50:18;1.00;;;0.63;;
4672;SDS011;61885;53.560;9.940;2022-10-16T10:52:56;1.00;;;0.63;;
4672;SDS011;61885;53.560;9.940;2022-10-16T10:55:36;0.90;;;0.60;;
4672;SDS011;61885;53.560;9.940;2022-10-16T11:01:05;1.43;;;0.73;;
4672;SDS011;61885;53.560;9.940;2022-10-16T11:03:42;1.10;;;0.80;;
4672;SDS011;61885;53.560;9.940;2022-10-16T11:06:27;1.93;;;1.10;;
4672;SDS011;61885;53.560;9.940;2022-10-16T11:09:02;4.00;;;0.70;;
4672;SDS011;61885;53.560;9.940;2022-10-16T11:11:43;1.53;;;0.60;;
4672;SDS011;61885;53.560;9.940;2022-10-16T11:14:16;1.40;;;0.73;;
4672;SDS011;61885;53.560;9.940;2022-10-16T11:16:50;6.20;;;1.13;;
4672;SDS011;61885;53.560;9.940;2022-10-16T11:19:26;1.00;;;0.60;;
4672;SDS011;61885;53.560;9.940;2022-10-16T11:22:06;1.00;;;0.90;;
4672;SDS011;61885;53.560;9.940;2022-10-16T11:24:42;3.30;;;0.80;;
4672;SDS011;61885;53.560;9.940;2022-10-16T11:27:19;6.93;;;0.60;;
4672;SDS011;61885;53.560;9.940;2022-10-16T11:29:52;1.00;;;0.70;;
4672;SDS011;61885;53.560;9.940;2022-10-16T11:32:27;1.20;;;0.70;;
4672;SDS011;61885;53.560;9.940;2022-10-16T11:35:02;1.93;;;0.87;;
4672;SDS011;61885;53.560;9.940;2022-10-16T11:37:41;0.90;;;0.50;;
4672;SDS011;61885;53.560;9.940;2022-10-16T11:40:19;1.80;;;0.70;;
4672;SDS011;61885;53.560;9.940;2022-10-16T11:42:57;1.03;;;0.53;;
4672;SDS011;61885;53.560;9.940;2022-10-16T11:45:33;1.10;;;0.83;;
4672;SDS011;61885;53.560;9.940;2022-10-16T11:48:12;1.83;;;0.53;;
4672;SDS011;61885;53.560;9.940;2022-10-16T11:50:50;1.83;;;1.37;;
4672;SDS011;61885;53.560;9.940;2022-10-16T11:53:24;2.50;;;0.80;;
4672;SDS011;61885;53.560;9.940;2022-10-16T11:56:13;0.90;;;0.60;;
4672;SDS011;61885;53.560;9.940;2022-10-16T11:58:51;2.13;;;0.60;;
4672;SDS011;61885;53.560;9.940;2022-10-16T12:01:27;2.03;;;0.97;;
4672;SDS011;61885;53.560;9.940;2022-10-16T12:06:50;1.80;;;1.20;;
4672;SDS011;61885;53.560;9.940;2022-10-16T12:09:24;1.20;;;0.93;;
4672;SDS011;61885;53.560;9.940;2022-10-16T12:11:56;2.03;;;0.90;;
4672;SDS011;61885;53.560;9.940;2022-10-16T12:14:36;1.37;;;0.73;;
4672;SDS011;61885;53.560;9.940;2022-10-16T12:17:23;4.20;;;0.90;;
4672;SDS011;61885;53.560;9.940;2022-10-16T12:19:57;2.27;;;0.97;;
4672;SDS011;61885;53.560;9.940;2022-10-16T12:22:29;1.10;;;0.70;;
4672;SDS011;61885;53.560;9.940;2022-10-16T12:25:00;2.90;;;1.00;;
4672;SDS011;61885;53.560;9.940;2022-10-16T12:27:31;1.33;;;0.90;;
4672;SDS011;61885;53.560;9.940;2022-10-16T12:30:04;2.30;;;0.90;;
4672;SDS011;61885;53.560;9.940;2022-10-16T12:32:36;1.17;;;0.63;;
4672;SDS011;61885;53.560;9.940;2022-10-16T12:35:16;1.63;;;0.70;;
4672;SDS011;61885;53.560;9.940;2022-10-16T12:37:47;2.50;;;0.87;;
4672;SDS011;61885;53.560;9.940;2022-10-16T12:40:23;1.10;;;1.00;;
4672;SDS011;61885;53.560;9.940;2022-10-16T12:42:56;3.83;;;1.07;;
4672;SDS011;61885;53.560;9.940;2022-10-16T12:45:32;1.27;;;1.10;;
4672;SDS011;61885;53.560;9.940;2022-10-16T12:48:04;1.00;;;0.60;;
4672;SDS011;61885;53.560;9.940;2022-10-16T12:50:48;1.67;;;1.07;;
4672;SDS011;61885;53.560;9.940;2022-10-16T12:53:19;1.13;;;0.70;;
4672;SDS011;61885;53.560;9.940;2022-10-16T12:55:56;1.57;;;0.60;;
4672;SDS011;61885;53.560;9.940;2022-10-16T12:58:43;1.50;;;0.70;;
4672;SDS011;61885;53.560;9.940;2022-10-16T13:01:29;1.83;;;0.80;;
4672;SDS011;61885;53.560;9.940;2022-10-16T13:04:18;2.03;;;0.70;;
4672;SDS011;61885;53.560;9.940;2022-10-16T13:07:01;2.70;;;0.90;;
4672;SDS011;61885;53.560;9.940;2022-10-16T13:09:47;1.70;;;0.70;;
4672;SDS011;61885;53.560;9.940;2022-10-16T13:12:27;1.10;;;0.60;;
4672;SDS011;61885;53.560;9.940;2022-10-16T13:15:20;1.40;;;1.10;;
4672;SDS011;61885;53.560;9.940;2022-10-16T13:18:06;2.60;;;0.90;;
4672;SDS011;61885;53.560;9.940;2022-10-16T13:20:56;1.00;;;0.80;;
4672;SDS011;61885;53.560;9.940;2022-10-16T13:23:36;1.77;;;0.63;;
4672;SDS011;61885;53.560;9.940;2022-10-16T13:26:14;1.63;;;0.80;;
4672;SDS011;61885;53.560;9.940;2022-10-16T13:28:51;8.90;;;1.53;;
4672;SDS011;61885;53.560;9.940;2022-10-16T13:31:22;5.67;;;1.20;;
4672;SDS011;61885;53.560;9.940;2022-10-16T13:33:55;1.60;;;0.90;;
4672;SDS011;61885;53.560;9.940;2022-10-16T13:36:28;1.50;;;0.80;;
4672;SDS011;61885;53.560;9.940;2022-10-16T13:38:59;4.50;;;0.90;;
4672;SDS011;61885;53.560;9.940;2022-10-16T13:41:35;3.20;;;0.90;;
4672;SDS011;61885;53.560;9.940;2022-10-16T13:44:05;5.23;;;0.73;;
4672;SDS011;61885;53.560;9.940;2022-10-16T13:46:44;2.07;;;0.80;;
4672;SDS011;61885;53.560;9.940;2022-10-16T13:49:16;1.50;;;0.80;;
4672;SDS011;61885;53.560;9.940;2022-10-16T13:51:53;3.27;;;0.90;;
4672;SDS011;61885;53.560;9.940;2022-10-16T13:54:25;2.47;;;0.93;;
4672;SDS011;61885;53.560;9.940;2022-10-16T13:56:56;1.23;;;0.83;;
4672;SDS011;61885;53.560;9.940;2022-10-16T13:59:34;1.50;;;0.70;;
4672;SDS011;61885;53.560;9.940;2022-10-16T14:02:08;1.10;;;0.80;;
4672;SDS011;61885;53.560;9.940;2022-10-16T14:04:49;4.53;;;1.10;;
4672;SDS011;61885;53.560;9.940;2022-10-16T14:07:22;2.73;;;0.83;;
4672;SDS011;61885;53.560;9.940;2022-10-16T14:09:54;3.87;;;1.13;;
4672;SDS011;61885;53.560;9.940;2022-10-16T14:12:24;3.50;;;0.70;;
4672;SDS011;61885;53.560;9.940;2022-10-16T14:14:54;1.10;;;0.60;;
4672;SDS011;61885;53.560;9.940;2022-10-16T14:17:26;2.17;;;0.70;;
4672;SDS011;61885;53.560;9.940;2022-10-16T14:20:01;2.10;;;0.90;;
4672;SDS011;61885;53.560;9.940;2022-10-16T14:22:34;1.20;;;0.70;;
4672;SDS011;61885;53.560;9.940;2022-10-16T14:25:18;1.33;;;0.80;;
4672;SDS011;61885;53.560;9.940;2022-10-16T14:27:56;4.57;;;0.93;;
4672;SDS011;61885;53.560;9.940;2022-10-16T14:30:28;1.00;;;0.70;;
4672;SDS011;61885;53.560;9.940;2022-10-16T14:32:59;2.90;;;0.67;;
4672;SDS011;61885;53.560;9.940;2022-10-16T14:35:34;5.23;;;1.47;;
4672;SDS011;61885;53.560;9.940;2022-10-16T14:38:05;3.30;;;1.47;;
4672;SDS011;61885;53.560;9.940;2022-10-16T14:40:46;1.77;;;0.70;;
4672;SDS011;61885;53.560;9.940;2022-10-16T14:43:20;1.60;;;0.80;;
4672;SDS011;61885;53.560;9.940;2022-10-16T14:45:52;1.00;;;0.60;;
4672;SDS011;61885;53.560;9.940;2022-10-16T14:48:24;2.40;;;0.60;;
4672;SDS011;61885;53.560;9.940;2022-10-16T14:50:57;3.20;;;0.80;;
4672;SDS011;61885;53.560;9.940;2022-10-16T14:53:26;1.70;;;0.60;;
4672;SDS011;61885;53.560;9.940;2022-10-16T14:55:56;3.87;;;1.00;;
4672;SDS011;61885;53.560;9.940;2022-10-16T14:58:25;1.00;;;0.90;;
4672;SDS011;61885;53.560;9.940;2022-10-16T15:00:55;5.23;;;3.30;;
4672;SDS011;61885;53.560;9.940;2022-10-16T15:03:25;1.47;;;0.73;;
4672;SDS011;61885;53.560;9.940;2022-10-16T15:05:57;1.47;;;1.20;;
4672;SDS011;61885;53.560;9.940;2022-10-16T15:08:26;1.37;;;1.03;;
4672;SDS011;61885;53.560;9.940;2022-10-16T15:10:56;3.73;;;0.90;;
4672;SDS011;61885;53.560;9.940;2022-10-16T15:13:26;2.17;;;1.23;;
4672;SDS011;61885;53.560;9.940;2022-10-16T15:15:55;2.00;;;0.77;;
4672;SDS011;61885;53.560;9.940;2022-10-16T15:18:25;2.63;;;1.07;;
4672;SDS011;61885;53.560;9.940;2022-10-16T15:20:57;1.60;;;1.00;;
4672;SDS011;61885;53.560;9.940;2022-10-16T15:23:27;2.87;;;0.73;;
4672;SDS011;61885;53.560;9.940;2022-10-16T15:25:56;3.00;;;0.83;;
4672;SDS011;61885;53.560;9.940;2022-10-16T15:28:26;1.00;;;0.67;;
4672;SDS011;61885;53.560;9.940;2022-10-16T15:30:56;1.77;;;0.70;;
4672;SDS011;61885;53.560;9.940;2022-10-16T15:33:26;3.73;;;1.53;;
4672;SDS011;61885;53.560;9.940;2022-10-16T15:36:02;3.47;;;1.00;;
4672;SDS011;61885;53.560;9.940;2022-10-16T15:38:32;3.07;;;0.87;;
4672;SDS011;61885;53.560;9.940;2022-10-16T15:41:02;1.43;;;0.90;;
4672;SDS011;61885;53.560;9.940;2022-10-16T15:43:32;2.07;;;0.97;;
4672;SDS011;61885;53.560;9.940;2022-10-16T15:46:02;1.73;;;1.17;;
4672;SDS011;61885;53.560;9.940;2022-10-16T15:48:34;2.83;;;1.23;;
4672;SDS011;61885;53.560;9.940;2022-10-16T15:51:07;4.83;;;2.10;;
4672;SDS011;61885;53.560;9.940;2022-10-16T15:53:37;1.63;;;1.10;;